createdAt,value
2022-09-24T00:01:17.630Z,12.20
2022-09-24T00:03:53.207Z,10.48
2022-09-24T00:06:26.927Z,9.98
2022-09-24T00:08:57.971Z,10.75
2022-09-24T00:11:28.806Z,13.95
2022-09-24T00:13:58.757Z,9.50
2022-09-24T00:16:30.635Z,10.15
2022-09-24T00:19:02.730Z,10.57
2022-09-24T00:21:34.469Z,7.70
2022-09-24T00:24:05.514Z,12.40
2022-09-24T00:26:50.659Z,9.35
2022-09-24T00:29:20.962Z,8.48
2022-09-24T00:31:50.227Z,9.32
2022-09-24T00:34:20.884Z,10.73
2022-09-24T00:36:49.048Z,13.38
2022-09-24T00:39:17.775Z,8.40
2022-09-24T00:41:47.314Z,14.77
2022-09-24T00:44:53.787Z,10.25
2022-09-24T00:47:30.653Z,9.75
2022-09-24T00:50:08.554Z,11.43
2022-09-24T00:52:41.937Z,9.20
2022-09-24T00:55:10.939Z,13.27
2022-09-24T00:57:41.027Z,7.63
2022-09-24T01:00:10.428Z,11.13
2022-09-24T01:02:43.396Z,8.07
2022-09-24T01:05:14.913Z,7.18
2022-09-24T01:07:43.071Z,11.05
2022-09-24T01:10:15.191Z,9.43
2022-09-24T01:12:50.627Z,10.32
2022-09-24T01:15:26.447Z,8.20
2022-09-24T01:18:02.314Z,9.10
2022-09-24T01:20:55.585Z,9.30
2022-09-24T01:23:52.948Z,8.15
2022-09-24T01:26:41.194Z,10.85
2022-09-24T01:29:42.057Z,10.80
2022-09-24T01:32:20.380Z,9.52
2022-09-24T01:34:53.537Z,11.18
2022-09-24T01:37:26.736Z,12.35
2022-09-24T01:39:58.016Z,11.38
2022-09-24T01:42:30.640Z,13.45
2022-09-24T01:45:02.442Z,11.47
2022-09-24T01:47:35.008Z,10.07
2022-09-24T01:50:06.000Z,14.07
2022-09-24T01:52:41.621Z,9.20
2022-09-24T01:55:14.282Z,9.60
2022-09-24T01:57:48.337Z,8.87
2022-09-24T02:00:20.320Z,12.45
2022-09-24T02:02:56.111Z,11.35
2022-09-24T02:05:43.022Z,11.93
2022-09-24T02:08:17.729Z,10.65
2022-09-24T02:10:52.239Z,11.32
2022-09-24T02:13:25.034Z,16.02
2022-09-24T02:16:00.707Z,14.27
2022-09-24T02:18:34.963Z,12.93
2022-09-24T02:23:37.706Z,13.20
2022-09-24T02:26:06.811Z,12.57
2022-09-24T02:28:36.742Z,13.45
2022-09-24T02:31:09.346Z,11.55
2022-09-24T02:34:00.964Z,14.07
2022-09-24T02:36:29.783Z,13.02
2022-09-24T02:38:57.893Z,15.60
2022-09-24T02:41:27.098Z,13.48
2022-09-24T02:43:54.978Z,11.65
2022-09-24T02:46:24.567Z,11.75
2022-09-24T02:48:52.692Z,62.80
2022-09-24T02:51:21.711Z,35.90
2022-09-24T02:53:49.719Z,20.20
2022-09-24T02:56:17.751Z,18.77
2022-09-24T02:58:46.046Z,15.45
2022-09-24T03:01:14.699Z,15.65
2022-09-24T03:03:44.451Z,17.88
2022-09-24T03:06:14.067Z,15.25
2022-09-24T03:08:42.378Z,16.15
2022-09-24T03:11:15.094Z,16.70
2022-09-24T03:13:46.456Z,18.27
2022-09-24T03:16:14.611Z,17.20
2022-09-24T03:18:45.039Z,19.17
2022-09-24T03:21:14.579Z,16.15
2022-09-24T03:23:42.537Z,13.77
2022-09-24T03:26:12.916Z,14.18
2022-09-24T03:28:41.263Z,16.80
2022-09-24T03:31:08.916Z,15.85
2022-09-24T03:33:39.616Z,17.60
2022-09-24T03:36:12.227Z,16.13
2022-09-24T03:38:42.231Z,14.27
2022-09-24T03:41:11.839Z,14.10
2022-09-24T03:43:40.244Z,15.80
2022-09-24T03:46:09.361Z,12.80
2022-09-24T03:48:39.145Z,13.68
2022-09-24T03:51:12.353Z,13.30
2022-09-24T03:53:40.860Z,13.68
2022-09-24T03:56:11.889Z,15.38
2022-09-24T03:58:40.489Z,14.52
2022-09-24T04:01:09.962Z,13.45
2022-09-24T04:03:38.376Z,15.07
2022-09-24T04:06:08.993Z,20.05
2022-09-24T04:08:39.747Z,16.35
2022-09-24T04:11:08.976Z,15.82
2022-09-24T04:13:37.342Z,15.13
2022-09-24T04:16:05.767Z,14.75
2022-09-24T04:18:38.938Z,15.15
2022-09-24T04:23:37.661Z,15.85
2022-09-24T04:26:05.388Z,13.77
2022-09-24T04:28:33.766Z,17.38
2022-09-24T04:31:04.696Z,14.02
2022-09-24T04:33:32.869Z,13.48
2022-09-24T04:36:02.317Z,14.70
2022-09-24T04:38:31.697Z,12.90
2022-09-24T04:41:06.273Z,13.95
2022-09-24T04:43:34.560Z,12.45
2022-09-24T04:46:03.893Z,13.32
2022-09-24T04:48:32.682Z,12.80
2022-09-24T04:51:02.462Z,12.30
2022-09-24T04:53:33.501Z,13.05
2022-09-24T04:56:03.244Z,12.60
2022-09-24T04:58:31.858Z,15.98
2022-09-24T05:01:04.920Z,11.77
2022-09-24T05:03:33.323Z,16.38
2022-09-24T05:06:02.041Z,13.82
2022-09-24T05:08:29.947Z,14.10
2022-09-24T05:10:59.206Z,16.38
2022-09-24T05:13:27.953Z,15.15
2022-09-24T05:15:55.928Z,15.50
2022-09-24T05:18:24.450Z,13.95
2022-09-24T05:20:53.038Z,15.63
2022-09-24T05:23:21.589Z,12.10
2022-09-24T05:26:07.813Z,14.60
2022-09-24T05:28:37.752Z,12.65
2022-09-24T05:31:06.810Z,14.38
2022-09-24T05:33:35.075Z,14.95
2022-09-24T05:36:03.666Z,13.88
2022-09-24T05:38:33.080Z,15.50
2022-09-24T05:41:01.230Z,17.35
2022-09-24T05:43:29.465Z,13.68
2022-09-24T05:45:59.293Z,13.93
2022-09-24T05:48:27.163Z,21.98
2022-09-24T05:50:57.297Z,14.93
2022-09-24T05:53:25.790Z,14.18
2022-09-24T05:55:54.412Z,12.70
2022-09-24T05:58:22.357Z,13.10
2022-09-24T06:00:51.115Z,9.82
2022-09-24T06:03:21.014Z,8.82
2022-09-24T06:05:51.840Z,8.25
2022-09-24T06:08:21.494Z,9.82
2022-09-24T06:10:49.789Z,8.18
2022-09-24T06:13:21.958Z,6.53
2022-09-24T06:15:50.486Z,9.18
2022-09-24T06:18:20.869Z,12.90
2022-09-24T06:20:48.695Z,13.15
2022-09-24T06:23:16.457Z,10.35
2022-09-24T06:25:44.335Z,12.15
2022-09-24T06:28:12.161Z,12.68
2022-09-24T06:30:41.179Z,8.32
2022-09-24T06:35:45.289Z,11.27
2022-09-24T06:38:14.800Z,11.05
2022-09-24T06:40:43.855Z,11.85
2022-09-24T06:43:13.814Z,12.68
2022-09-24T06:45:43.879Z,10.65
2022-09-24T06:48:14.462Z,12.63
2022-09-24T06:50:45.589Z,10.15
2022-09-24T06:53:14.436Z,9.98
2022-09-24T06:55:42.924Z,12.70
2022-09-24T06:58:12.814Z,12.52
2022-09-24T07:00:43.108Z,12.95
2022-09-24T07:03:17.919Z,8.45
2022-09-24T07:05:47.613Z,9.32
2022-09-24T07:08:15.736Z,9.35
2022-09-24T07:10:45.488Z,8.80
2022-09-24T07:13:20.462Z,8.38
2022-09-24T07:15:50.259Z,7.80
2022-09-24T07:18:18.684Z,10.32
2022-09-24T07:20:52.675Z,8.40
2022-09-24T07:23:21.555Z,8.77
2022-09-24T07:25:50.440Z,9.20
2022-09-24T07:28:20.878Z,7.03
2022-09-24T07:30:57.106Z,18.00
2022-09-24T07:33:25.634Z,8.32
2022-09-24T07:35:54.871Z,20.38
2022-09-24T07:38:23.517Z,16.92
2022-09-24T07:40:51.899Z,14.35
2022-09-24T07:43:21.802Z,17.13
2022-09-24T07:45:49.725Z,10.13
2022-09-24T07:48:17.556Z,11.45
2022-09-24T07:50:45.698Z,11.52
2022-09-24T07:53:16.922Z,12.93
2022-09-24T07:55:45.518Z,10.40
2022-09-24T07:58:15.813Z,15.00
2022-09-24T08:00:44.370Z,12.90
2022-09-24T08:03:12.255Z,11.35
2022-09-24T08:05:45.445Z,12.18
2022-09-24T08:08:15.305Z,11.32
2022-09-24T08:10:43.733Z,10.77
2022-09-24T08:13:12.246Z,12.20
2022-09-24T08:15:40.298Z,13.00
2022-09-24T08:18:10.714Z,14.43
2022-09-24T08:20:39.632Z,9.95
2022-09-24T08:23:10.044Z,14.40
2022-09-24T08:25:40.025Z,11.73
2022-09-24T08:28:10.754Z,12.35
2022-09-24T08:30:40.957Z,15.10
2022-09-24T08:33:09.221Z,12.80
2022-09-24T08:35:40.309Z,11.60
2022-09-24T08:38:08.910Z,11.77
2022-09-24T08:40:44.076Z,10.80
2022-09-24T08:43:24.237Z,16.95
2022-09-24T08:46:16.182Z,12.70
2022-09-24T08:48:51.749Z,10.70
2022-09-24T08:51:24.457Z,11.02
2022-09-24T08:53:58.610Z,13.53
2022-09-24T08:56:35.088Z,13.13
2022-09-24T08:59:12.411Z,13.25
2022-09-24T09:01:48.066Z,11.85
2022-09-24T09:04:29.777Z,13.30
2022-09-24T09:07:09.322Z,11.52
2022-09-24T09:09:46.289Z,12.50
2022-09-24T09:12:23.890Z,12.35
2022-09-24T09:14:57.147Z,14.38
2022-09-24T09:17:39.031Z,12.65
2022-09-24T09:20:18.738Z,13.20
2022-09-24T09:22:49.864Z,13.00
2022-09-24T09:25:24.844Z,13.00
2022-09-24T09:28:00.855Z,12.88
2022-09-24T09:30:34.361Z,15.68
2022-09-24T09:35:47.182Z,20.48
2022-09-24T09:38:23.648Z,14.77
2022-09-24T09:41:00.210Z,15.30
2022-09-24T09:43:30.464Z,14.95
2022-09-24T09:46:11.503Z,14.20
2022-09-24T09:48:45.820Z,15.07
2022-09-24T09:51:27.217Z,16.50
2022-09-24T09:53:57.111Z,15.50
2022-09-24T09:56:27.774Z,17.75
2022-09-24T09:59:08.304Z,12.95
2022-09-24T10:01:40.587Z,13.88
2022-09-24T10:04:29.543Z,9.77
2022-09-24T10:07:07.738Z,13.13
2022-09-24T10:09:36.272Z,11.82
2022-09-24T10:12:22.130Z,12.70
2022-09-24T10:15:01.359Z,11.25
2022-09-24T10:17:32.833Z,10.70
2022-09-24T10:20:02.607Z,15.02
2022-09-24T10:22:32.135Z,13.98
2022-09-24T10:25:02.090Z,12.38
2022-09-24T10:27:35.811Z,13.93
2022-09-24T10:30:32.561Z,11.98
2022-09-24T10:33:02.888Z,13.88
2022-09-24T10:35:34.961Z,13.43
2022-09-24T10:38:05.718Z,13.50
2022-09-24T10:40:42.701Z,14.18
2022-09-24T10:43:19.477Z,11.75
2022-09-24T10:46:13.708Z,14.52
2022-09-24T10:48:46.914Z,10.30
2022-09-24T10:54:34.896Z,12.05
2022-09-24T10:57:14.678Z,12.25
2022-09-24T10:59:55.118Z,10.20
2022-09-24T11:02:59.910Z,12.13
2022-09-24T11:05:32.984Z,11.65
2022-09-24T11:08:16.958Z,10.95
2022-09-24T11:11:02.885Z,8.48
2022-09-24T11:13:40.529Z,7.93
2022-09-24T11:16:26.543Z,9.18
2022-09-24T11:19:01.514Z,7.55
2022-09-24T11:21:59.886Z,8.23
2022-09-24T11:24:48.795Z,6.22
2022-09-24T11:27:43.745Z,6.95
2022-09-24T11:30:14.931Z,4.75
2022-09-24T11:33:01.247Z,5.35
2022-09-24T11:35:48.419Z,4.85
2022-09-24T11:38:19.883Z,7.75
2022-09-24T11:41:10.333Z,6.57
2022-09-24T11:43:54.955Z,7.57
2022-09-24T11:46:39.260Z,7.93
2022-09-24T11:49:32.628Z,7.32
2022-09-24T11:52:07.421Z,5.28
2022-09-24T11:54:41.346Z,6.78
2022-09-24T11:57:16.144Z,5.97
2022-09-24T11:59:50.225Z,8.50
2022-09-24T12:02:24.987Z,5.43
2022-09-24T12:04:59.606Z,4.72
2022-09-24T12:07:35.432Z,5.60
2022-09-24T12:10:08.467Z,5.25
2022-09-24T12:12:42.081Z,5.18
2022-09-24T12:15:18.431Z,3.75
2022-09-24T12:17:52.332Z,6.10
2022-09-24T12:20:24.654Z,6.65
2022-09-24T12:22:59.942Z,5.60
2022-09-24T12:25:30.794Z,6.75
2022-09-24T12:28:00.557Z,7.53
2022-09-24T12:30:57.748Z,5.53
2022-09-24T12:33:30.466Z,5.97
2022-09-24T12:36:07.192Z,4.55
2022-09-24T12:38:40.721Z,4.88
2022-09-24T12:41:33.497Z,6.50
2022-09-24T12:44:08.141Z,5.90
2022-09-24T12:46:42.799Z,5.20
2022-09-24T12:49:25.515Z,8.80
2022-09-24T12:51:55.699Z,6.63
2022-09-24T12:54:30.283Z,5.03
2022-09-24T12:57:10.333Z,6.88
2022-09-24T12:59:49.119Z,6.70
2022-09-24T13:02:21.197Z,6.90
2022-09-24T13:05:04.594Z,6.10
2022-09-24T13:07:35.751Z,6.05
2022-09-24T13:10:24.654Z,6.30
2022-09-24T13:12:54.359Z,6.63
2022-09-24T13:15:31.904Z,8.18
2022-09-24T13:18:07.093Z,7.90
2022-09-24T13:20:39.998Z,4.95
2022-09-24T13:23:32.055Z,7.60
2022-09-24T13:26:04.949Z,5.55
2022-09-24T13:28:38.648Z,6.75
2022-09-24T13:31:15.956Z,7.90
2022-09-24T13:33:47.535Z,5.78
2022-09-24T13:36:19.362Z,10.73
2022-09-24T13:38:57.485Z,5.65
2022-09-24T13:41:43.756Z,6.05
2022-09-24T13:44:19.175Z,7.22
2022-09-24T13:46:48.696Z,8.27
2022-09-24T13:49:19.961Z,7.88
2022-09-24T13:52:07.805Z,10.95
2022-09-24T13:54:46.777Z,6.45
2022-09-24T13:57:23.506Z,8.20
2022-09-24T13:59:51.669Z,6.25
2022-09-24T14:02:28.114Z,5.20
2022-09-24T14:04:58.657Z,8.40
2022-09-24T14:07:28.829Z,6.70
2022-09-24T14:10:08.621Z,7.53
2022-09-24T14:12:38.343Z,5.35
2022-09-24T14:15:15.794Z,5.93
2022-09-24T14:17:44.602Z,7.18
2022-09-24T14:20:15.813Z,6.13
2022-09-24T14:22:47.024Z,6.43
2022-09-24T14:25:18.640Z,6.22
2022-09-24T14:27:52.016Z,6.28
2022-09-24T14:30:22.864Z,6.82
2022-09-24T14:32:54.486Z,7.30
2022-09-24T14:35:30.173Z,7.95
2022-09-24T14:38:06.451Z,8.07
2022-09-24T14:40:43.406Z,9.27
2022-09-24T14:43:22.110Z,7.30
2022-09-24T14:45:52.369Z,7.82
2022-09-24T14:48:29.703Z,9.60
2022-09-24T14:50:58.007Z,8.95
2022-09-24T14:53:29.713Z,7.78
2022-09-24T14:55:58.301Z,8.45
2022-09-24T14:58:36.401Z,7.97
2022-09-24T15:01:08.356Z,8.82
2022-09-24T15:03:41.940Z,8.82
2022-09-24T15:06:20.697Z,10.02
2022-09-24T15:08:59.356Z,6.90
2022-09-24T15:11:30.013Z,8.02
2022-09-24T15:14:12.822Z,8.02
2022-09-24T15:16:41.703Z,5.25
2022-09-24T15:19:19.455Z,6.25
2022-09-24T15:21:49.217Z,6.47
2022-09-24T15:24:17.646Z,6.97
2022-09-24T15:26:47.998Z,6.50
2022-09-24T15:29:24.657Z,8.52
2022-09-24T15:31:53.135Z,7.55
2022-09-24T15:34:21.306Z,6.47
2022-09-24T15:36:49.986Z,6.53
2022-09-24T15:39:19.991Z,10.43
2022-09-24T15:41:47.963Z,5.90
2022-09-24T15:44:23.119Z,8.57
2022-09-24T15:46:52.408Z,8.00
2022-09-24T15:49:22.330Z,6.93
2022-09-24T15:51:53.265Z,7.40
2022-09-24T15:54:21.818Z,7.88
2022-09-24T15:56:52.471Z,6.70
2022-09-24T15:59:23.637Z,5.47
2022-09-24T16:01:55.598Z,7.00
2022-09-24T16:04:24.024Z,8.35
2022-09-24T16:06:53.347Z,6.53
2022-09-24T16:09:21.891Z,8.20
2022-09-24T16:11:50.917Z,7.65
2022-09-24T16:14:19.468Z,8.15
2022-09-24T16:16:48.874Z,8.98
2022-09-24T16:19:16.908Z,6.30
2022-09-24T16:21:45.052Z,7.38
2022-09-24T16:24:13.480Z,9.38
2022-09-24T16:26:41.896Z,11.70
2022-09-24T16:29:12.262Z,10.50
2022-09-24T16:31:41.427Z,9.48
2022-09-24T16:34:12.229Z,10.52
2022-09-24T16:36:40.439Z,11.93
2022-09-24T16:39:08.617Z,8.65
2022-09-24T16:41:38.093Z,11.73
2022-09-24T16:44:06.985Z,11.13
2022-09-24T16:46:35.253Z,8.70
2022-09-24T16:49:03.850Z,9.98
2022-09-24T16:51:33.954Z,9.63
2022-09-24T16:54:02.512Z,8.52
2022-09-24T16:56:30.855Z,7.65
2022-09-24T16:58:59.663Z,11.75
2022-09-24T17:01:28.417Z,8.27
2022-09-24T17:03:59.673Z,7.65
2022-09-24T17:06:30.410Z,8.38
2022-09-24T17:09:18.025Z,7.75
2022-09-24T17:11:48.557Z,7.55
2022-09-24T17:14:19.139Z,10.13
2022-09-24T17:16:47.586Z,8.30
2022-09-24T17:19:16.940Z,10.48
2022-09-24T17:21:47.013Z,7.72
2022-09-24T17:24:21.572Z,15.30
2022-09-24T17:26:51.112Z,9.57
2022-09-24T17:29:22.508Z,7.78
2022-09-24T17:31:51.171Z,12.93
2022-09-24T17:34:19.898Z,8.05
2022-09-24T17:36:48.785Z,9.48
2022-09-24T17:39:19.507Z,9.10
2022-09-24T17:41:47.742Z,11.02
2022-09-24T17:44:18.263Z,14.95
2022-09-24T17:46:46.702Z,20.52
2022-09-24T17:49:15.866Z,31.58
2022-09-24T17:51:44.395Z,21.55
2022-09-24T17:54:14.949Z,23.25
2022-09-24T17:56:45.294Z,27.58
2022-09-24T17:59:15.463Z,18.08
2022-09-24T18:01:45.814Z,26.52
2022-09-24T18:04:16.664Z,32.13
2022-09-24T18:06:47.242Z,29.55
2022-09-24T18:09:17.455Z,20.88
2022-09-24T18:11:49.873Z,14.77
2022-09-24T18:14:20.331Z,15.75
2022-09-24T18:16:49.477Z,29.73
2022-09-24T18:19:18.685Z,14.63
2022-09-24T18:21:48.648Z,10.65
2022-09-24T18:24:18.277Z,8.45
2022-09-24T18:26:51.573Z,2.95
2022-09-24T18:29:21.564Z,5.40
2022-09-24T18:31:51.809Z,4.13
2022-09-24T18:34:20.394Z,9.20
2022-09-24T18:36:48.831Z,4.47
2022-09-24T18:39:23.902Z,5.03
2022-09-24T18:41:55.008Z,4.78
2022-09-24T18:44:23.360Z,5.40
2022-09-24T18:46:51.703Z,5.85
2022-09-24T18:49:20.651Z,8.82
2022-09-24T18:51:49.243Z,6.50
2022-09-24T18:54:18.490Z,7.22
2022-09-24T18:56:46.750Z,6.35
2022-09-24T18:59:18.700Z,6.07
2022-09-24T19:01:49.081Z,25.58
2022-09-24T19:04:18.098Z,7.63
2022-09-24T19:06:48.191Z,10.75
2022-09-24T19:09:17.955Z,6.45
2022-09-24T19:11:46.606Z,6.22
2022-09-24T19:14:18.375Z,21.10
2022-09-24T19:16:47.521Z,6.70
2022-09-24T19:19:16.712Z,4.93
2022-09-24T19:21:44.579Z,6.25
2022-09-24T19:24:12.897Z,6.60
2022-09-24T19:26:41.212Z,10.82
2022-09-24T19:29:09.789Z,7.03
2022-09-24T19:31:41.417Z,7.25
2022-09-24T19:34:12.675Z,6.70
2022-09-24T19:36:43.893Z,6.10
2022-09-24T19:39:13.020Z,6.82
2022-09-24T19:41:41.224Z,4.70
2022-09-24T19:44:09.675Z,4.97
2022-09-24T19:46:39.849Z,5.80
2022-09-24T19:49:10.193Z,4.72
2022-09-24T19:51:38.765Z,6.97
2022-09-24T19:54:08.385Z,4.90
2022-09-24T19:56:36.941Z,6.95
2022-09-24T19:59:07.755Z,6.57
2022-09-24T20:01:35.901Z,6.72
2022-09-24T20:04:08.162Z,5.35
2022-09-24T20:06:38.667Z,5.78
2022-09-24T20:09:07.248Z,6.10
2022-09-24T20:11:35.236Z,9.23
2022-09-24T20:14:03.229Z,12.27
2022-09-24T20:16:32.586Z,10.15
2022-09-24T20:19:02.291Z,11.00
2022-09-24T20:21:35.387Z,9.13
2022-09-24T20:24:04.822Z,10.90
2022-09-24T20:26:51.091Z,7.68
2022-09-24T20:29:21.599Z,10.93
2022-09-24T20:31:52.467Z,8.38
2022-09-24T20:34:21.938Z,8.80
2022-09-24T20:36:51.618Z,8.95
2022-09-24T20:39:20.005Z,9.48
2022-09-24T20:41:49.429Z,12.40
2022-09-24T20:44:17.435Z,11.77
2022-09-24T20:46:45.137Z,10.07
2022-09-24T20:49:22.971Z,8.68
2022-09-24T20:51:56.945Z,10.57
2022-09-24T20:54:27.257Z,10.05
2022-09-24T20:56:56.237Z,11.27
2022-09-24T20:59:25.942Z,16.88
2022-09-24T21:01:54.301Z,15.85
2022-09-24T21:04:22.607Z,13.00
2022-09-24T21:06:52.705Z,12.95
2022-09-24T21:09:20.801Z,10.88
2022-09-24T21:11:50.083Z,13.30
2022-09-24T21:14:18.819Z,10.90
2022-09-24T21:16:47.314Z,9.25
2022-09-24T21:19:16.245Z,10.15
2022-09-24T21:21:43.981Z,11.73
2022-09-24T21:24:16.023Z,12.02
2022-09-24T21:26:45.059Z,13.07
2022-09-24T21:29:16.618Z,15.57
2022-09-24T21:31:46.492Z,15.95
2022-09-24T21:34:17.060Z,13.05
2022-09-24T21:36:46.746Z,15.43
2022-09-24T21:39:18.750Z,13.80
2022-09-24T21:41:50.372Z,14.45
2022-09-24T21:44:19.479Z,17.17
2022-09-24T21:46:47.727Z,13.82
2022-09-24T21:49:17.170Z,11.45
2022-09-24T21:51:46.134Z,12.52
2022-09-24T21:54:17.460Z,10.75
2022-09-24T21:56:46.637Z,11.60
2022-09-24T21:59:32.607Z,12.85
2022-09-24T22:02:00.650Z,13.50
2022-09-24T22:04:29.619Z,11.35
2022-09-24T22:06:57.571Z,10.18
2022-09-24T22:09:27.383Z,10.02
2022-09-24T22:11:55.741Z,11.70
2022-09-24T22:14:23.678Z,15.13
2022-09-24T22:16:51.511Z,11.05
2022-09-24T22:19:19.506Z,13.73
2022-09-24T22:21:47.223Z,11.02
2022-09-24T22:24:16.207Z,11.27
2022-09-24T22:26:46.089Z,10.45
2022-09-24T22:29:13.948Z,11.60
2022-09-24T22:31:41.720Z,11.55
2022-09-24T22:34:28.078Z,11.30
2022-09-24T22:36:55.703Z,14.20
2022-09-24T22:39:23.560Z,14.10
2022-09-24T22:41:52.642Z,13.65
2022-09-24T22:44:20.492Z,11.75
2022-09-24T22:46:48.196Z,10.07
2022-09-24T22:49:16.081Z,14.20
2022-09-24T22:51:44.514Z,14.00
2022-09-24T22:54:13.983Z,14.10
2022-09-24T22:56:41.802Z,13.40
2022-09-24T22:59:10.929Z,13.45
2022-09-24T23:01:42.612Z,14.77
2022-09-24T23:04:13.251Z,14.20
2022-09-24T23:06:41.378Z,14.40
2022-09-24T23:09:10.072Z,14.43
2022-09-24T23:11:38.009Z,13.18
2022-09-24T23:14:07.587Z,16.33
2022-09-24T23:16:38.522Z,13.50
2022-09-24T23:19:08.389Z,14.95
2022-09-24T23:21:37.291Z,18.23
2022-09-24T23:24:09.171Z,13.52
2022-09-24T23:26:37.238Z,15.50
2022-09-24T23:29:04.905Z,13.27
2022-09-24T23:31:35.653Z,15.10
2022-09-24T23:34:06.963Z,14.82
2022-09-24T23:36:35.878Z,18.60
2022-09-24T23:39:05.239Z,20.50
2022-09-24T23:41:32.967Z,16.00
2022-09-24T23:44:01.063Z,17.83
2022-09-24T23:46:29.171Z,19.55
2022-09-24T23:48:57.617Z,18.02
2022-09-24T23:51:26.822Z,20.35
2022-09-24T23:53:55.215Z,19.42
2022-09-24T23:56:23.065Z,19.02
2022-09-24T23:58:50.965Z,17.63
